createdAt,value
2019-02-05T00:01:25.206Z,4.70
2019-02-05T00:03:51.498Z,4.60
2019-02-05T00:06:18.102Z,4.70
2019-02-05T00:08:44.323Z,4.70
2019-02-05T00:11:10.519Z,4.70
2019-02-05T00:13:37.135Z,4.70
2019-02-05T00:16:03.748Z,4.70
2019-02-05T00:18:30.071Z,4.70
2019-02-05T00:20:56.275Z,4.70
2019-02-05T00:23:22.702Z,4.60
2019-02-05T00:25:49.303Z,4.70
2019-02-05T00:28:15.514Z,4.70
2019-02-05T00:30:59.995Z,4.70
2019-02-05T00:33:26.228Z,4.60
2019-02-05T00:35:52.531Z,4.60
2019-02-05T00:38:18.746Z,4.70
2019-02-05T00:40:45.455Z,4.70
2019-02-05T00:43:11.669Z,4.70
2019-02-05T00:45:38.069Z,4.70
2019-02-05T00:48:04.606Z,4.70
2019-02-05T00:50:30.810Z,4.70
2019-02-05T00:52:57.134Z,4.80
2019-02-05T00:55:23.338Z,4.70
2019-02-05T00:57:49.557Z,4.70
2019-02-05T01:00:23.277Z,4.80
2019-02-05T01:02:51.163Z,4.70
2019-02-05T01:05:17.774Z,4.70
2019-02-05T01:07:44.079Z,4.70
2019-02-05T01:10:10.904Z,4.70
2019-02-05T01:12:37.206Z,4.80
2019-02-05T01:15:15.699Z,4.80
2019-02-05T01:17:42.207Z,4.70
2019-02-05T01:20:11.826Z,4.70
2019-02-05T01:22:38.444Z,4.70
2019-02-05T01:25:06.567Z,4.70
2019-02-05T01:27:32.762Z,4.80
2019-02-05T01:29:59.049Z,4.80
2019-02-05T01:32:25.755Z,4.80
2019-02-05T01:34:52.120Z,4.70
2019-02-05T01:37:18.428Z,4.70
2019-02-05T01:39:44.631Z,4.70
2019-02-05T01:42:11.072Z,4.70
2019-02-05T01:44:37.450Z,4.70
2019-02-05T01:47:03.687Z,4.60
2019-02-05T01:49:29.902Z,4.70
2019-02-05T01:51:56.234Z,4.70
2019-02-05T01:54:22.436Z,4.60
2019-02-05T01:56:48.658Z,4.70
2019-02-05T01:59:14.858Z,4.70
2019-02-05T02:01:41.083Z,4.70
2019-02-05T02:04:07.423Z,4.60
2019-02-05T02:06:33.627Z,4.60
2019-02-05T02:08:59.842Z,4.60
2019-02-05T02:11:26.242Z,4.70
2019-02-05T02:13:52.467Z,4.70
2019-02-05T02:16:18.671Z,4.70
2019-02-05T02:18:45.111Z,4.80
2019-02-05T02:21:11.509Z,4.80
2019-02-05T02:23:37.776Z,4.90
2019-02-05T02:26:04.162Z,4.80
2019-02-05T02:28:30.387Z,4.80
2019-02-05T02:30:57.199Z,4.80
2019-02-05T02:33:23.524Z,4.70
2019-02-05T02:35:49.815Z,4.80
2019-02-05T02:38:16.014Z,4.80
2019-02-05T02:40:42.350Z,4.70
2019-02-05T02:43:08.645Z,4.60
2019-02-05T02:45:34.865Z,4.60
2019-02-05T02:48:01.215Z,4.50
2019-02-05T02:50:27.898Z,4.50
2019-02-05T02:52:54.187Z,4.40
2019-02-05T02:55:20.715Z,4.50
2019-02-05T02:57:47.534Z,4.50
2019-02-05T03:00:22.193Z,4.50
2019-02-05T03:02:49.787Z,4.40
2019-02-05T03:05:17.621Z,4.50
2019-02-05T03:07:44.427Z,4.50
2019-02-05T03:10:14.705Z,4.50
2019-02-05T03:12:41.160Z,4.50
2019-02-05T03:15:08.882Z,4.50
2019-02-05T03:17:35.086Z,4.50
2019-02-05T03:20:01.615Z,4.40
2019-02-05T03:22:27.916Z,4.30
2019-02-05T03:24:54.372Z,4.50
2019-02-05T03:27:21.455Z,4.40
2019-02-05T03:29:48.254Z,4.40
2019-02-05T03:32:14.588Z,4.40
2019-02-05T03:34:41.067Z,4.40
2019-02-05T03:37:07.396Z,4.30
2019-02-05T03:39:33.703Z,4.30
2019-02-05T03:42:00.019Z,4.30
2019-02-05T03:44:26.225Z,4.30
2019-02-05T03:46:52.770Z,4.30
2019-02-05T03:49:19.782Z,4.30
2019-02-05T03:51:52.535Z,4.30
2019-02-05T03:54:52.773Z,4.20
2019-02-05T03:57:44.371Z,4.20
2019-02-05T04:00:17.700Z,4.20
2019-02-05T04:02:59.424Z,4.30
2019-02-05T04:05:38.822Z,4.30
2019-02-05T04:08:30.559Z,4.30
2019-02-05T04:11:21.608Z,4.30
2019-02-05T04:14:08.387Z,4.40
2019-02-05T04:17:06.867Z,4.40
2019-02-05T04:19:39.746Z,4.40
2019-02-05T04:22:18.709Z,4.40
2019-02-05T04:25:14.839Z,4.40
2019-02-05T04:27:58.699Z,4.40
2019-02-05T04:30:37.814Z,4.40
2019-02-05T04:33:16.642Z,4.30
2019-02-05T04:35:46.662Z,4.30
2019-02-05T04:38:38.201Z,4.30
2019-02-05T04:41:23.021Z,4.20
2019-02-05T04:43:59.288Z,4.10
2019-02-05T04:46:29.419Z,4.10
2019-02-05T04:49:27.311Z,4.00
2019-02-05T04:52:09.510Z,4.10
2019-02-05T04:54:45.525Z,4.00
2019-02-05T04:57:18.740Z,4.00
2019-02-05T04:59:54.866Z,4.00
2019-02-05T05:02:30.951Z,4.00
2019-02-05T05:05:13.015Z,4.10
2019-02-05T05:07:58.559Z,4.10
2019-02-05T05:10:24.883Z,4.10
2019-02-05T05:12:51.097Z,4.10
2019-02-05T05:15:17.602Z,4.00
2019-02-05T05:17:43.814Z,4.00
2019-02-05T05:20:10.127Z,4.00
2019-02-05T05:22:36.534Z,4.10
2019-02-05T05:25:06.750Z,4.10
2019-02-05T05:27:33.482Z,4.00
2019-02-05T05:30:00.153Z,4.10
2019-02-05T05:32:27.015Z,4.10
2019-02-05T05:34:53.224Z,4.10
2019-02-05T05:37:20.547Z,4.10
2019-02-05T05:39:47.156Z,4.10
2019-02-05T05:42:13.578Z,4.10
2019-02-05T05:44:40.278Z,4.00
2019-02-05T05:47:06.745Z,4.00
2019-02-05T05:49:33.050Z,3.90
2019-02-05T05:51:59.290Z,4.00
2019-02-05T05:54:25.499Z,4.00
2019-02-05T05:56:51.906Z,3.90
2019-02-05T05:59:18.234Z,4.00
2019-02-05T06:01:44.444Z,3.90
2019-02-05T06:04:10.771Z,4.00
2019-02-05T06:06:37.274Z,3.90
2019-02-05T06:09:06.198Z,4.00
2019-02-05T06:11:32.703Z,4.00
2019-02-05T06:13:59.023Z,4.00
2019-02-05T06:16:25.330Z,4.00
2019-02-05T06:18:51.654Z,4.00
2019-02-05T06:21:17.963Z,4.00
2019-02-05T06:23:44.715Z,4.00
2019-02-05T06:26:11.130Z,4.00
2019-02-05T06:28:37.766Z,4.10
2019-02-05T06:31:04.075Z,4.10
2019-02-05T06:33:30.599Z,4.00
2019-02-05T06:35:56.902Z,4.10
2019-02-05T06:38:23.231Z,4.10
2019-02-05T06:40:49.634Z,4.10
2019-02-05T06:43:15.854Z,4.10
2019-02-05T06:45:42.122Z,4.10
2019-02-05T06:48:08.581Z,4.10
2019-02-05T06:50:35.103Z,4.10
2019-02-05T06:53:01.410Z,4.10
2019-02-05T06:55:27.728Z,4.10
2019-02-05T06:57:54.043Z,4.20
2019-02-05T07:00:22.466Z,4.20
2019-02-05T07:02:48.865Z,4.20
2019-02-05T07:05:15.491Z,4.10
2019-02-05T07:07:41.997Z,4.20
2019-02-05T07:10:18.143Z,4.20
2019-02-05T07:12:44.468Z,4.10
2019-02-05T07:15:10.888Z,4.10
2019-02-05T07:17:48.957Z,4.10
2019-02-05T07:20:11.255Z,4.10
2019-02-05T07:22:37.623Z,4.10
2019-02-05T07:25:07.739Z,4.10
2019-02-05T07:27:34.435Z,4.10
2019-02-05T07:30:00.715Z,4.10
2019-02-05T07:32:27.239Z,4.20
2019-02-05T07:34:53.546Z,4.20
2019-02-05T07:37:19.977Z,4.20
2019-02-05T07:39:46.386Z,4.20
2019-02-05T07:42:12.708Z,4.20
2019-02-05T07:44:40.090Z,4.20
2019-02-05T07:47:06.557Z,4.30
2019-02-05T07:49:33.159Z,4.40
2019-02-05T07:51:59.479Z,4.40
2019-02-05T07:54:25.774Z,4.40
2019-02-05T07:56:52.231Z,4.40
2019-02-05T07:59:18.535Z,4.40
2019-02-05T08:01:44.743Z,4.40
2019-02-05T08:04:11.272Z,4.40
2019-02-05T08:06:37.571Z,4.40
2019-02-05T08:09:06.291Z,4.50
2019-02-05T08:11:32.591Z,4.40
2019-02-05T08:13:59.226Z,4.40
2019-02-05T08:16:25.546Z,4.50
2019-02-05T08:18:51.890Z,4.50
2019-02-05T08:21:18.200Z,4.50
2019-02-05T08:23:44.518Z,4.60
2019-02-05T08:26:10.819Z,4.60
2019-02-05T08:28:40.894Z,4.60
2019-02-05T08:31:05.344Z,4.60
2019-02-05T08:33:31.959Z,4.60
2019-02-05T08:35:58.166Z,4.70
2019-02-05T08:38:24.791Z,4.70
2019-02-05T08:40:51.091Z,4.70
2019-02-05T08:43:17.410Z,4.70
2019-02-05T08:45:55.802Z,4.70
2019-02-05T08:48:12.369Z,4.70
2019-02-05T08:50:38.870Z,4.80
2019-02-05T08:53:05.174Z,4.80
2019-02-05T08:55:32.347Z,4.90
2019-02-05T08:58:01.459Z,4.90
2019-02-05T09:00:32.171Z,4.90
2019-02-05T09:02:58.667Z,5.00
2019-02-05T09:05:25.087Z,5.00
2019-02-05T09:07:51.491Z,5.00
2019-02-05T09:10:24.639Z,5.00
2019-02-05T09:12:51.038Z,5.10
2019-02-05T09:15:28.832Z,5.10
2019-02-05T09:17:45.668Z,5.10
2019-02-05T09:20:14.775Z,5.10
2019-02-05T09:22:41.095Z,5.10
2019-02-05T09:25:09.105Z,5.20
2019-02-05T09:27:35.523Z,5.30
2019-02-05T09:30:04.027Z,5.40
2019-02-05T09:32:35.046Z,5.50
2019-02-05T09:34:58.382Z,5.60
2019-02-05T09:37:25.004Z,5.60
2019-02-05T09:39:51.219Z,5.80
2019-02-05T09:42:17.544Z,5.80
2019-02-05T09:44:43.969Z,5.90
2019-02-05T09:47:10.287Z,5.90
2019-02-05T09:49:55.214Z,6.00
2019-02-05T09:52:21.535Z,6.00
2019-02-05T09:54:48.251Z,6.00
2019-02-05T09:57:14.573Z,6.10
2019-02-05T09:59:45.340Z,6.10
2019-02-05T10:02:09.107Z,6.10
2019-02-05T10:04:35.423Z,6.10
2019-02-05T10:07:01.824Z,6.10
2019-02-05T10:09:28.139Z,6.00
2019-02-05T10:11:54.763Z,6.00
2019-02-05T10:14:21.399Z,6.00
2019-02-05T10:16:47.799Z,6.00
2019-02-05T10:19:14.116Z,6.20
2019-02-05T10:21:40.421Z,6.20
2019-02-05T10:24:06.742Z,6.20
2019-02-05T10:26:33.139Z,6.20
2019-02-05T10:28:59.360Z,6.20
2019-02-05T10:31:25.671Z,6.20
2019-02-05T10:33:55.257Z,6.30
2019-02-05T10:36:20.203Z,6.30
2019-02-05T10:38:47.110Z,6.40
2019-02-05T10:41:13.526Z,6.30
2019-02-05T10:43:39.830Z,6.20
2019-02-05T10:46:06.971Z,6.10
2019-02-05T10:48:33.283Z,6.20
2019-02-05T10:50:59.715Z,6.20
2019-02-05T10:53:26.023Z,6.30
2019-02-05T10:55:52.338Z,6.30
2019-02-05T10:58:18.645Z,6.30
2019-02-05T11:00:46.745Z,6.50
2019-02-05T11:03:13.211Z,6.60
2019-02-05T11:05:39.511Z,6.80
2019-02-05T11:08:05.936Z,6.80
2019-02-05T11:10:32.339Z,6.70
2019-02-05T11:12:58.859Z,6.60
2019-02-05T11:15:27.367Z,6.60
2019-02-05T11:17:53.835Z,6.50
2019-02-05T11:20:22.034Z,6.60
2019-02-05T11:22:48.959Z,6.60
2019-02-05T11:25:15.558Z,6.60
2019-02-05T11:27:41.959Z,6.60
2019-02-05T11:30:20.203Z,6.70
2019-02-05T11:32:45.284Z,6.80
2019-02-05T11:35:11.703Z,6.80
2019-02-05T11:37:38.006Z,6.80
2019-02-05T11:40:08.444Z,6.90
2019-02-05T11:42:34.746Z,6.90
2019-02-05T11:45:01.071Z,6.80
2019-02-05T11:47:27.396Z,6.70
2019-02-05T11:49:53.715Z,6.80
2019-02-05T11:52:20.019Z,7.00
2019-02-05T11:54:46.318Z,7.00
2019-02-05T11:57:12.639Z,7.00
2019-02-05T11:59:38.947Z,7.00
2019-02-05T12:02:05.670Z,6.90
2019-02-05T12:04:31.970Z,7.00
2019-02-05T12:06:58.291Z,7.00
2019-02-05T12:09:25.190Z,6.90
2019-02-05T12:11:51.516Z,7.00
2019-02-05T12:14:18.018Z,6.90
2019-02-05T12:16:44.338Z,7.00
2019-02-05T12:19:10.746Z,6.90
2019-02-05T12:21:37.078Z,6.80
2019-02-05T12:24:03.587Z,6.80
2019-02-05T12:26:30.189Z,6.90
2019-02-05T12:28:56.506Z,7.00
2019-02-05T12:31:22.918Z,7.00
2019-02-05T12:33:49.230Z,7.10
2019-02-05T12:36:15.531Z,7.00
2019-02-05T12:38:41.754Z,7.00
2019-02-05T12:41:08.055Z,7.00
2019-02-05T12:43:34.571Z,6.90
2019-02-05T12:46:01.222Z,7.00
2019-02-05T12:48:27.646Z,6.90
2019-02-05T12:50:53.943Z,6.90
2019-02-05T12:53:20.247Z,6.90
2019-02-05T12:55:46.776Z,7.00
2019-02-05T12:58:13.070Z,7.10
2019-02-05T13:00:41.695Z,7.10
2019-02-05T13:03:09.204Z,7.00
2019-02-05T13:05:36.516Z,7.00
2019-02-05T13:08:05.505Z,6.90
2019-02-05T13:10:35.251Z,6.80
2019-02-05T13:13:01.622Z,6.90
2019-02-05T13:15:28.039Z,6.80
2019-02-05T13:17:54.443Z,6.90
2019-02-05T13:20:26.208Z,6.90
2019-02-05T13:22:52.912Z,6.90
2019-02-05T13:25:24.856Z,6.90
2019-02-05T13:27:51.388Z,6.70
2019-02-05T13:30:20.175Z,6.80
2019-02-05T13:32:46.390Z,6.80
2019-02-05T13:35:13.594Z,6.90
2019-02-05T13:37:40.072Z,6.90
2019-02-05T13:40:16.214Z,7.10
2019-02-05T13:42:42.552Z,7.10
2019-02-05T13:45:09.351Z,7.20
2019-02-05T13:47:35.568Z,7.20
2019-02-05T13:50:02.576Z,7.10
2019-02-05T13:52:28.895Z,7.20
2019-02-05T13:54:55.295Z,7.10
2019-02-05T13:57:21.897Z,7.20
2019-02-05T13:59:48.115Z,7.20
2019-02-05T14:02:14.315Z,7.10
2019-02-05T14:04:40.531Z,7.20
2019-02-05T14:07:06.931Z,7.30
2019-02-05T14:09:33.355Z,7.30
2019-02-05T14:11:59.555Z,7.30
2019-02-05T14:14:25.774Z,7.30
2019-02-05T14:16:52.472Z,7.20
2019-02-05T14:19:18.691Z,7.30
2019-02-05T14:21:44.994Z,7.30
2019-02-05T14:24:11.215Z,7.40
2019-02-05T14:26:37.516Z,7.40
2019-02-05T14:29:03.816Z,7.40
2019-02-05T14:31:31.671Z,7.50
2019-02-05T14:33:58.043Z,7.40
2019-02-05T14:36:24.266Z,7.30
2019-02-05T14:38:50.663Z,7.30
2019-02-05T14:41:16.975Z,7.40
2019-02-05T14:43:43.399Z,7.30
2019-02-05T14:46:09.754Z,7.30
2019-02-05T14:48:35.958Z,7.20
2019-02-05T14:51:02.779Z,7.30
2019-02-05T14:53:28.987Z,7.30
2019-02-05T14:55:55.322Z,7.30
2019-02-05T14:58:21.615Z,7.40
2019-02-05T15:00:47.816Z,7.30
2019-02-05T15:03:14.135Z,7.30
2019-02-05T15:05:41.543Z,7.30
2019-02-05T15:08:08.667Z,7.30
2019-02-05T15:10:34.874Z,7.40
2019-02-05T15:13:01.599Z,7.40
2019-02-05T15:15:28.503Z,7.20
2019-02-05T15:17:55.023Z,7.30
2019-02-05T15:20:24.530Z,7.20
2019-02-05T15:22:50.738Z,7.20
2019-02-05T15:25:17.156Z,7.20
2019-02-05T15:27:43.563Z,7.20
2019-02-05T15:30:25.558Z,7.20
2019-02-05T15:33:12.046Z,7.10
2019-02-05T15:35:40.159Z,7.10
2019-02-05T15:38:06.564Z,7.10
2019-02-05T15:40:32.798Z,7.10
2019-02-05T15:42:59.657Z,7.20
2019-02-05T15:45:26.485Z,7.00
2019-02-05T15:47:52.788Z,6.90
2019-02-05T15:50:19.308Z,6.90
2019-02-05T15:52:45.502Z,6.90
2019-02-05T15:55:14.286Z,6.90
2019-02-05T15:57:40.691Z,6.90
2019-02-05T16:00:13.275Z,6.90
2019-02-05T16:02:39.502Z,6.90
2019-02-05T16:05:08.697Z,6.90
2019-02-05T16:07:35.008Z,6.80
2019-02-05T16:10:01.836Z,6.90
2019-02-05T16:12:28.035Z,6.90
2019-02-05T16:14:54.232Z,6.80
2019-02-05T16:17:26.975Z,6.80
2019-02-05T16:19:53.180Z,6.80
2019-02-05T16:22:19.666Z,6.70
2019-02-05T16:24:45.867Z,6.70
2019-02-05T16:27:12.091Z,6.70
2019-02-05T16:29:38.295Z,6.70
2019-02-05T16:32:04.886Z,6.70
2019-02-05T16:34:31.186Z,6.70
2019-02-05T16:36:57.407Z,6.60
2019-02-05T16:39:24.007Z,6.60
2019-02-05T16:41:50.247Z,6.60
2019-02-05T16:44:16.563Z,6.60
2019-02-05T16:46:42.883Z,6.60
2019-02-05T16:49:09.087Z,6.60
2019-02-05T16:51:35.344Z,6.60
2019-02-05T16:54:01.543Z,6.60
2019-02-05T16:56:27.848Z,6.60
2019-02-05T16:58:54.477Z,6.60
2019-02-05T17:01:20.893Z,6.60
2019-02-05T17:03:47.297Z,6.50
2019-02-05T17:06:13.599Z,6.60
2019-02-05T17:08:40.123Z,6.60
2019-02-05T17:11:06.439Z,6.60
2019-02-05T17:13:32.644Z,6.60
2019-02-05T17:15:58.858Z,6.60
2019-02-05T17:18:25.471Z,6.60
2019-02-05T17:20:51.686Z,6.60
2019-02-05T17:23:17.891Z,6.60
2019-02-05T17:25:44.110Z,6.60
2019-02-05T17:28:10.310Z,6.50
2019-02-05T17:30:38.839Z,6.60
2019-02-05T17:33:05.553Z,6.60
2019-02-05T17:35:31.999Z,6.50
2019-02-05T17:37:59.803Z,6.50
2019-02-05T17:40:26.443Z,6.50
2019-02-05T17:42:54.099Z,6.40
2019-02-05T17:45:23.299Z,6.40
2019-02-05T17:47:50.319Z,6.40
2019-02-05T17:50:16.886Z,6.40
2019-02-05T17:52:43.138Z,6.40
2019-02-05T17:55:12.543Z,6.50
2019-02-05T17:57:38.867Z,6.50
2019-02-05T18:00:17.720Z,6.40
2019-02-05T18:02:51.437Z,6.40
2019-02-05T18:05:14.738Z,6.50
2019-02-05T18:07:41.039Z,6.50
2019-02-05T18:10:10.763Z,6.40
2019-02-05T18:12:37.091Z,6.40
2019-02-05T18:15:07.165Z,6.40
2019-02-05T18:17:33.366Z,6.40
2019-02-05T18:19:59.590Z,6.30
2019-02-05T18:22:28.651Z,6.30
2019-02-05T18:24:54.875Z,6.40
2019-02-05T18:27:21.075Z,6.40
2019-02-05T18:29:47.650Z,6.40
2019-02-05T18:32:13.858Z,6.30
2019-02-05T18:34:40.178Z,6.30
2019-02-05T18:37:06.383Z,6.30
2019-02-05T18:39:32.683Z,6.30
2019-02-05T18:41:58.922Z,6.30
2019-02-05T18:44:25.129Z,6.30
2019-02-05T18:46:51.461Z,6.20
2019-02-05T18:49:17.963Z,6.20
2019-02-05T18:51:44.206Z,6.20
2019-02-05T18:54:10.410Z,6.10
2019-02-05T18:56:36.612Z,6.10
2019-02-05T18:59:02.934Z,6.10
2019-02-05T19:01:29.154Z,6.10
2019-02-05T19:03:55.382Z,6.10
2019-02-05T19:06:21.579Z,6.10
2019-02-05T19:08:48.502Z,6.10
2019-02-05T19:11:14.811Z,6.10
2019-02-05T19:13:41.123Z,6.10
2019-02-05T19:16:07.323Z,6.10
2019-02-05T19:18:33.551Z,6.10
2019-02-05T19:21:00.938Z,6.10
2019-02-05T19:23:27.142Z,6.00
2019-02-05T19:25:55.260Z,6.00
2019-02-05T19:28:29.935Z,6.00
2019-02-05T19:30:58.083Z,6.10
2019-02-05T19:33:27.349Z,6.00
2019-02-05T19:35:52.498Z,6.00
2019-02-05T19:38:18.695Z,6.00
2019-02-05T19:40:44.981Z,5.90
2019-02-05T19:43:11.298Z,5.90
2019-02-05T19:45:42.647Z,5.90
2019-02-05T19:48:10.952Z,5.80
2019-02-05T19:50:37.354Z,5.80
2019-02-05T19:53:03.706Z,5.70
2019-02-05T19:55:30.006Z,5.70
2019-02-05T19:57:56.631Z,5.80
2019-02-05T20:00:23.095Z,5.80
2019-02-05T20:02:49.314Z,5.70
2019-02-05T20:05:16.523Z,5.70
2019-02-05T20:07:43.240Z,5.60
2019-02-05T20:10:11.267Z,5.50
2019-02-05T20:12:37.756Z,5.40
2019-02-05T20:15:10.134Z,5.30
2019-02-05T20:17:36.445Z,5.20
2019-02-05T20:20:06.475Z,5.10
2019-02-05T20:22:32.676Z,5.10
2019-02-05T20:24:58.886Z,4.90
2019-02-05T20:27:25.478Z,4.80
2019-02-05T20:30:16.462Z,4.80
2019-02-05T20:32:42.670Z,4.60
2019-02-05T20:35:09.105Z,4.70
2019-02-05T20:37:35.397Z,4.70
2019-02-05T20:40:01.919Z,4.70
2019-02-05T20:42:28.638Z,4.60
2019-02-05T20:44:54.990Z,4.60
2019-02-05T20:47:21.471Z,4.60
2019-02-05T20:49:47.802Z,4.60
2019-02-05T20:52:14.001Z,4.60
2019-02-05T20:54:40.315Z,4.50
2019-02-05T20:57:06.530Z,4.60
2019-02-05T20:59:32.848Z,4.60
2019-02-05T21:01:59.171Z,4.60
2019-02-05T21:04:25.813Z,4.50
2019-02-05T21:06:52.130Z,4.50
2019-02-05T21:09:18.534Z,4.40
2019-02-05T21:11:44.875Z,4.40
2019-02-05T21:14:11.579Z,4.30
2019-02-05T21:16:37.911Z,4.30
2019-02-05T21:19:04.332Z,4.20
2019-02-05T21:21:30.630Z,4.20
2019-02-05T21:23:56.855Z,4.10
2019-02-05T21:26:23.558Z,4.10
2019-02-05T21:28:50.396Z,4.20
2019-02-05T21:31:17.491Z,4.10
2019-02-05T21:33:43.815Z,4.10
2019-02-05T21:36:10.327Z,4.00
2019-02-05T21:38:36.568Z,4.00
2019-02-05T21:41:03.081Z,4.00
2019-02-05T21:43:29.386Z,4.10
2019-02-05T21:45:55.605Z,4.00
2019-02-05T21:48:22.201Z,4.00
2019-02-05T21:50:48.527Z,3.90
2019-02-05T21:53:14.832Z,4.00
2019-02-05T21:55:41.150Z,3.90
2019-02-05T21:58:07.362Z,3.90
2019-02-05T22:00:35.015Z,3.80
2019-02-05T22:03:11.835Z,3.90
2019-02-05T22:05:38.441Z,3.80
2019-02-05T22:08:04.993Z,3.80
2019-02-05T22:10:31.376Z,3.70
2019-02-05T22:12:57.802Z,3.80
2019-02-05T22:15:24.611Z,3.70
2019-02-05T22:17:51.061Z,3.70
2019-02-05T22:20:25.474Z,3.70
2019-02-05T22:22:56.149Z,3.60
2019-02-05T22:25:33.426Z,3.70
2019-02-05T22:27:59.930Z,3.70
2019-02-05T22:30:36.877Z,3.60
2019-02-05T22:33:05.787Z,3.60
2019-02-05T22:35:32.406Z,3.50
2019-02-05T22:37:58.826Z,3.50
2019-02-05T22:40:27.055Z,3.50
2019-02-05T22:42:53.664Z,3.50
2019-02-05T22:45:26.725Z,3.50
2019-02-05T22:47:53.123Z,3.50
2019-02-05T22:50:24.675Z,3.50
2019-02-05T22:52:51.404Z,3.40
2019-02-05T22:55:18.079Z,3.40
2019-02-05T22:57:44.611Z,3.40
2019-02-05T23:00:33.650Z,3.30
2019-02-05T23:03:00.069Z,3.40
2019-02-05T23:05:51.104Z,3.30
2019-02-05T23:08:17.435Z,3.40
2019-02-05T23:11:04.676Z,3.40
2019-02-05T23:13:31.102Z,3.40
2019-02-05T23:15:57.410Z,3.50
2019-02-05T23:18:23.843Z,3.40
2019-02-05T23:20:50.142Z,3.50
2019-02-05T23:23:16.468Z,3.50
2019-02-05T23:25:42.874Z,3.50
2019-02-05T23:28:09.312Z,3.40
2019-02-05T23:30:35.718Z,3.40
2019-02-05T23:33:02.122Z,3.40
2019-02-05T23:35:28.822Z,3.40
2019-02-05T23:37:55.042Z,3.30
2019-02-05T23:40:21.262Z,3.30
2019-02-05T23:42:47.470Z,3.30
2019-02-05T23:45:13.998Z,3.20
2019-02-05T23:47:40.311Z,3.20
2019-02-05T23:50:12.222Z,3.20
2019-02-05T23:52:38.728Z,3.10
2019-02-05T23:55:08.453Z,3.10
2019-02-05T23:57:34.662Z,3.00
